Time;durP1;ratioP1;P1;durP2;ratioP2;P2;SDS_P1;SDS_P2;PMS_P1;PMS_P2;Temp;Humidity;BMP_temperature;BMP_pressure;BME280_temperature;BME280_humidity;BME280_pressure;Samples;Min_cycle;Max_cycle;Signal;HPM_P1;HPM_P2
2022/04/10 00:01:49;;;;;;;0.60;0.60;;;2.10;99.90;;;;;;5073540;28;20451;-69
2022/04/10 00:04:36;;;;;;;0.50;0.50;;;2.10;99.90;;;;;;5073394;28;20483;-68
2022/04/10 00:07:23;;;;;;;0.73;0.50;;;2.20;99.90;;;;;;5073445;28;20473;-70
2022/04/10 00:10:10;;;;;;;0.70;0.70;;;2.10;99.90;;;;;;5073623;28;20440;-68
2022/04/10 00:12:57;;;;;;;0.70;0.70;;;2.10;99.90;;;;;;5073296;28;20784;-70
2022/04/10 00:15:44;;;;;;;2.80;2.70;;;2.10;99.90;;;;;;5073796;28;20429;-68
2022/04/10 00:18:34;;;;;;;0.50;0.50;;;2.00;99.90;;;;;;5073713;28;20428;-68
2022/04/10 00:21:21;;;;;;;0.43;0.43;;;2.00;99.90;;;;;;5073663;28;20952;-68
2022/04/10 00:24:09;;;;;;;0.50;0.50;;;2.00;99.90;;;;;;5073805;28;20483;-68
2022/04/10 00:26:56;;;;;;;0.90;0.90;;;2.00;99.90;;;;;;5084367;28;20432;-68
2022/04/10 00:29:43;;;;;;;0.50;0.50;;;2.10;99.90;;;;;;5091823;28;20471;-69
2022/04/10 00:32:30;;;;;;;0.50;0.50;;;2.10;99.90;;;;;;5091525;28;20420;-72
2022/04/10 00:35:18;;;;;;;0.60;0.60;;;2.00;99.90;;;;;;5092226;28;20432;-69
2022/04/10 00:38:06;;;;;;;1.37;1.10;;;2.00;99.90;;;;;;5093658;28;20458;-70
2022/04/10 00:40:53;;;;;;;0.50;0.50;;;2.00;99.90;;;;;;5092768;28;20444;-69
2022/04/10 00:44:00;;;;;;;0.70;0.70;;;2.00;99.90;;;;;;5092788;28;20450;-69
2022/04/10 00:46:49;;;;;;;0.50;0.50;;;1.90;99.90;;;;;;5093276;28;20431;-72
2022/04/10 00:49:36;;;;;;;0.50;0.50;;;2.00;99.90;;;;;;5093367;28;20535;-70
2022/04/10 00:52:26;;;;;;;0.90;0.90;;;1.90;99.90;;;;;;5093777;28;20419;-69
2022/04/10 00:55:13;;;;;;;0.60;0.60;;;1.80;99.90;;;;;;5094254;28;20424;-71
2022/04/10 00:58:01;;;;;;;0.70;0.70;;;1.80;99.90;;;;;;5094332;28;20449;-70
2022/04/10 01:00:48;;;;;;;3.20;1.43;;;1.80;99.90;;;;;;5074650;28;21025;-68
2022/04/10 01:03:35;;;;;;;1.13;0.80;;;1.80;99.90;;;;;;5073950;28;20424;-69
2022/04/10 01:06:23;;;;;;;2.23;1.17;;;1.80;99.90;;;;;;5073593;28;20427;-68
2022/04/10 01:09:11;;;;;;;0.60;0.60;;;2.00;99.90;;;;;;5073817;28;20440;-69
2022/04/10 01:11:59;;;;;;;1.23;1.13;;;1.70;99.90;;;;;;5073444;28;20435;-69
2022/04/10 01:14:46;;;;;;;0.60;0.60;;;1.80;99.90;;;;;;5073428;28;20424;-68
2022/04/10 01:17:35;;;;;;;1.40;1.30;;;1.80;99.90;;;;;;5073959;28;20936;-69
2022/04/10 01:20:22;;;;;;;0.50;0.50;;;1.80;99.90;;;;;;5073182;28;20440;-69
2022/04/10 01:23:11;;;;;;;1.37;1.27;;;1.80;99.90;;;;;;5073469;28;20420;-68
2022/04/10 01:25:58;;;;;;;0.70;0.60;;;1.80;99.90;;;;;;5077416;28;20459;-71
2022/04/10 01:29:01;;;;;;;0.83;0.83;;;1.70;99.90;;;;;;5077428;28;20435;-69
2022/04/10 01:31:48;;;;;;;0.70;0.70;;;1.70;99.90;;;;;;5077787;28;20427;-69
2022/04/10 01:34:39;;;;;;;5.70;1.70;;;1.70;99.90;;;;;;5076913;28;20432;-68
2022/04/10 01:37:28;;;;;;;3.10;1.30;;;1.80;99.90;;;;;;5077122;28;20436;-69
2022/04/10 01:40:16;;;;;;;3.70;2.10;;;1.80;99.90;;;;;;5077459;28;20447;-69
2022/04/10 01:43:03;;;;;;;2.30;2.10;;;1.80;99.90;;;;;;5084346;28;20427;-68
2022/04/10 01:45:50;;;;;;;0.60;0.60;;;1.90;99.90;;;;;;5057809;28;20457;-69
2022/04/10 01:48:37;;;;;;;0.50;0.50;;;1.90;99.90;;;;;;5057613;28;20424;-69
2022/04/10 01:51:25;;;;;;;0.60;0.60;;;2.00;99.90;;;;;;5057303;28;20456;-70
2022/04/10 01:54:11;;;;;;;1.00;1.00;;;1.90;99.90;;;;;;5055954;28;20425;-70
2022/04/10 01:57:00;;;;;;;1.10;1.03;;;1.90;99.90;;;;;;5064862;28;20452;-70
2022/04/10 01:59:47;;;;;;;4.83;1.70;;;2.00;99.90;;;;;;5075714;28;20574;-70
2022/04/10 02:02:34;;;;;;;2.50;2.30;;;2.00;99.90;;;;;;5075304;28;20810;-70
2022/04/10 02:05:21;;;;;;;2.30;0.80;;;2.00;99.90;;;;;;5076032;28;20462;-69
2022/04/10 02:08:08;;;;;;;0.70;0.70;;;2.00;99.90;;;;;;5079640;28;20420;-70
2022/04/10 02:10:55;;;;;;;0.90;0.90;;;2.00;99.90;;;;;;5082241;28;20451;-70
2022/04/10 02:13:44;;;;;;;4.50;2.10;;;2.00;99.90;;;;;;5076996;28;20940;-71
2022/04/10 02:16:31;;;;;;;0.70;0.70;;;2.00;99.90;;;;;;5076303;28;20421;-70
2022/04/10 02:19:18;;;;;;;1.90;1.70;;;2.00;99.90;;;;;;5076068;28;20431;-69
2022/04/10 02:22:05;;;;;;;1.13;0.70;;;2.00;99.90;;;;;;5076098;28;20967;-70
2022/04/10 02:24:53;;;;;;;3.50;1.60;;;2.10;99.90;;;;;;5077364;28;20972;-69
2022/04/10 02:27:40;;;;;;;1.90;1.60;;;2.10;99.90;;;;;;5076347;28;21007;-70
2022/04/10 02:30:29;;;;;;;0.90;0.90;;;2.20;99.90;;;;;;5076504;28;20442;-69
2022/04/10 02:33:16;;;;;;;1.57;1.33;;;2.20;99.90;;;;;;5075796;28;20448;-70
2022/04/10 02:36:03;;;;;;;1.13;0.90;;;2.20;99.90;;;;;;5076359;28;20423;-70
2022/04/10 02:38:50;;;;;;;0.60;0.60;;;2.20;99.90;;;;;;5075974;28;20442;-70
2022/04/10 02:41:37;;;;;;;1.00;1.00;;;2.10;99.90;;;;;;5075113;28;20440;-69
2022/04/10 02:44:24;;;;;;;0.50;0.50;;;2.00;99.90;;;;;;5075497;28;20801;-70
2022/04/10 02:47:12;;;;;;;0.97;0.83;;;2.00;99.90;;;;;;5075122;28;20424;-69
2022/04/10 02:49:59;;;;;;;2.13;1.97;;;1.90;99.90;;;;;;5074878;28;20474;-70
2022/04/10 02:52:46;;;;;;;0.50;0.50;;;1.80;99.90;;;;;;5074703;28;20951;-70
2022/04/10 02:55:33;;;;;;;0.60;0.60;;;1.80;99.90;;;;;;5074989;28;20429;-70
2022/04/10 02:58:20;;;;;;;0.50;0.50;;;1.80;99.90;;;;;;5055387;28;20440;-69
2022/04/10 03:01:07;;;;;;;0.77;0.70;;;1.70;99.90;;;;;;5054674;28;20445;-70
2022/04/10 03:03:55;;;;;;;0.70;0.70;;;1.70;99.90;;;;;;5055611;28;20429;-70
2022/04/10 03:06:42;;;;;;;0.50;0.50;;;1.60;99.90;;;;;;5054956;28;20518;-70
2022/04/10 03:09:30;;;;;;;0.90;0.63;;;1.60;99.90;;;;;;5054756;28;20464;-70
2022/04/10 03:12:17;;;;;;;0.50;0.50;;;1.60;99.90;;;;;;5055103;28;20961;-70
2022/04/10 03:15:04;;;;;;;0.63;0.60;;;1.60;99.90;;;;;;5054546;28;20432;-68
2022/04/10 03:17:51;;;;;;;0.50;0.50;;;1.60;99.90;;;;;;5054815;28;20828;-70
2022/04/10 03:20:40;;;;;;;0.50;0.50;;;1.60;99.90;;;;;;5053735;28;20456;-69
2022/04/10 03:23:26;;;;;;;0.70;0.70;;;1.70;99.90;;;;;;5054582;28;20815;-69
2022/04/10 03:26:13;;;;;;;3.37;1.10;;;1.70;99.90;;;;;;5053644;28;20968;-69
2022/04/10 03:29:00;;;;;;;0.50;0.50;;;1.70;99.90;;;;;;5052999;28;20428;-70
2022/04/10 03:31:47;;;;;;;1.20;0.80;;;1.70;99.90;;;;;;5053002;28;20440;-70
2022/04/10 03:34:34;;;;;;;1.17;0.90;;;1.70;99.90;;;;;;5053623;28;20479;-69
2022/04/10 03:37:22;;;;;;;2.17;1.03;;;1.80;99.90;;;;;;5053053;28;20425;-69
2022/04/10 03:40:10;;;;;;;1.00;0.67;;;1.80;99.90;;;;;;5053357;28;20456;-69
2022/04/10 03:42:57;;;;;;;0.50;0.50;;;1.90;99.90;;;;;;5053011;28;20437;-69
2022/04/10 03:45:44;;;;;;;1.33;1.33;;;2.00;99.90;;;;;;5052225;28;20460;-70
2022/04/10 03:48:31;;;;;;;0.77;0.77;;;2.10;99.90;;;;;;5056820;28;20424;-69
2022/04/10 03:51:18;;;;;;;3.23;2.50;;;2.30;99.90;;;;;;5073837;28;20463;-69
2022/04/10 03:54:06;;;;;;;0.50;0.50;;;2.30;99.90;;;;;;5073562;28;20431;-69
2022/04/10 03:56:53;;;;;;;4.00;1.93;;;2.20;99.90;;;;;;5073405;28;20440;-70
2022/04/10 03:59:40;;;;;;;4.20;1.40;;;2.10;99.90;;;;;;5073950;28;20446;-69
2022/04/10 04:02:27;;;;;;;0.60;0.60;;;2.10;99.90;;;;;;5072848;28;20836;-70
2022/04/10 04:05:14;;;;;;;8.10;1.70;;;2.00;99.90;;;;;;5073583;28;20456;-70
2022/04/10 04:08:01;;;;;;;0.50;0.50;;;2.00;99.90;;;;;;5073711;28;20431;-70
2022/04/10 04:10:50;;;;;;;5.87;2.40;;;1.90;99.90;;;;;;5072813;28;20451;-69
2022/04/10 04:13:38;;;;;;;0.73;0.73;;;1.90;99.90;;;;;;5073710;28;20431;-69
2022/04/10 04:16:25;;;;;;;0.70;0.70;;;1.90;99.90;;;;;;5072740;28;20416;-70
2022/04/10 04:19:13;;;;;;;0.77;0.77;;;1.90;99.90;;;;;;5072677;28;20436;-70
2022/04/10 04:21:59;;;;;;;1.60;1.50;;;2.00;99.90;;;;;;5072848;28;20802;-70
2022/04/10 04:24:47;;;;;;;0.80;0.80;;;2.10;99.90;;;;;;5073229;28;20809;-69
2022/04/10 04:27:35;;;;;;;0.50;0.50;;;2.20;99.90;;;;;;5072909;28;20881;-69
2022/04/10 04:30:22;;;;;;;0.53;0.53;;;2.40;99.90;;;;;;5073072;28;20432;-70
2022/04/10 04:33:09;;;;;;;0.87;0.87;;;2.50;99.90;;;;;;5072368;28;20424;-69
2022/04/10 04:35:56;;;;;;;0.50;0.50;;;2.60;99.90;;;;;;5072843;28;20408;-70
2022/04/10 04:38:43;;;;;;;1.07;0.97;;;2.70;99.90;;;;;;5073064;28;20412;-68
2022/04/10 04:41:30;;;;;;;0.53;0.53;;;2.80;99.90;;;;;;5073233;28;20443;-69
2022/04/10 04:44:18;;;;;;;13.40;1.47;;;2.80;99.90;;;;;;5073334;28;20416;-68
2022/04/10 04:47:06;;;;;;;1.10;1.10;;;2.80;99.90;;;;;;5072834;28;20460;-68
2022/04/10 04:49:53;;;;;;;0.50;0.50;;;2.90;99.90;;;;;;5072507;28;20467;-69
2022/04/10 04:52:40;;;;;;;1.53;1.23;;;2.90;99.90;;;;;;5072821;28;20428;-68
2022/04/10 04:55:27;;;;;;;0.50;0.50;;;3.00;99.90;;;;;;5072599;28;20420;-68
2022/04/10 04:58:14;;;;;;;0.97;0.70;;;3.00;99.90;;;;;;5071745;28;20424;-68
2022/04/10 05:01:02;;;;;;;0.50;0.50;;;2.90;99.90;;;;;;5072417;28;20440;-69
2022/04/10 05:03:50;;;;;;;0.70;0.70;;;2.80;99.90;;;;;;5072573;28;20992;-68
2022/04/10 05:06:37;;;;;;;0.67;0.67;;;2.70;99.90;;;;;;5072654;28;20543;-68
2022/04/10 05:09:24;;;;;;;0.60;0.53;;;2.60;99.90;;;;;;5072688;28;20428;-68
2022/04/10 05:12:11;;;;;;;2.80;1.30;;;2.60;99.90;;;;;;5072740;28;20458;-68
2022/04/10 05:14:58;;;;;;;34.47;2.07;;;2.60;99.90;;;;;;5083515;28;20986;-69
2022/04/10 05:17:47;;;;;;;1.53;1.10;;;2.60;99.90;;;;;;5080492;28;20417;-68
2022/04/10 05:20:34;;;;;;;1.23;1.23;;;2.60;99.90;;;;;;5073945;28;20448;-69
2022/04/10 05:23:21;;;;;;;0.50;0.50;;;2.80;99.90;;;;;;5072584;28;20424;-69
2022/04/10 05:26:08;;;;;;;1.27;1.10;;;3.00;99.90;;;;;;5072774;28;20475;-69
2022/04/10 05:28:55;;;;;;;1.10;0.80;;;3.20;99.90;;;;;;5073080;28;20436;-68
2022/04/10 05:31:42;;;;;;;1.43;1.33;;;3.40;99.90;;;;;;5072426;28;20438;-68
2022/04/10 05:34:30;;;;;;;4.47;2.60;;;3.40;99.90;;;;;;5072742;28;20424;-68
2022/04/10 05:37:17;;;;;;;0.83;0.83;;;3.50;99.90;;;;;;5072865;28;20941;-68
2022/04/10 05:40:05;;;;;;;2.10;2.00;;;3.50;99.90;;;;;;5072291;28;20444;-68
2022/04/10 05:42:52;;;;;;;0.90;0.90;;;3.60;99.90;;;;;;5072173;28;20424;-68
2022/04/10 05:45:39;;;;;;;1.43;1.10;;;3.60;99.90;;;;;;5072402;28;20526;-68
2022/04/10 05:48:26;;;;;;;8.63;1.53;;;3.70;99.90;;;;;;5072429;28;20419;-69
2022/04/10 05:51:14;;;;;;;1.43;1.07;;;3.80;99.90;;;;;;5072446;28;20456;-68
2022/04/10 05:54:01;;;;;;;0.50;0.50;;;3.80;99.90;;;;;;5072478;28;20806;-69
2022/04/10 05:56:48;;;;;;;1.50;1.40;;;3.80;99.90;;;;;;5072622;28;20427;-68
2022/04/10 05:59:35;;;;;;;4.10;1.30;;;3.70;99.90;;;;;;5072842;28;20538;-69
2022/04/10 06:02:22;;;;;;;0.40;0.40;;;3.70;99.90;;;;;;5076152;28;20545;-69
2022/04/10 06:05:09;;;;;;;1.60;1.47;;;3.70;99.90;;;;;;5072511;28;20435;-70
2022/04/10 06:07:58;;;;;;;4.50;1.67;;;3.80;99.90;;;;;;5072513;28;20419;-71
2022/04/10 06:10:45;;;;;;;0.90;0.90;;;4.00;99.90;;;;;;5074474;28;20431;-69
2022/04/10 06:13:32;;;;;;;2.53;1.63;;;4.20;99.90;;;;;;5075927;28;20431;-69
2022/04/10 06:16:19;;;;;;;0.50;0.50;;;4.50;99.90;;;;;;5076597;28;20419;-69
2022/04/10 06:19:06;;;;;;;3.67;2.00;;;4.60;99.90;;;;;;5075703;28;20416;-70
2022/04/10 06:21:53;;;;;;;1.13;1.13;;;4.70;99.90;;;;;;5075389;28;20420;-70
2022/04/10 06:24:41;;;;;;;4.20;2.33;;;4.70;99.90;;;;;;5077173;28;20450;-68
2022/04/10 06:27:28;;;;;;;1.00;0.60;;;4.90;99.90;;;;;;5080659;28;20512;-69
2022/04/10 06:30:15;;;;;;;8.03;2.60;;;4.90;99.90;;;;;;5079185;28;20829;-69
2022/04/10 06:33:02;;;;;;;1.20;0.87;;;5.00;99.90;;;;;;5077569;28;20435;-69
2022/04/10 06:35:49;;;;;;;1.57;0.80;;;5.00;99.90;;;;;;5078047;28;20424;-70
2022/04/10 06:38:36;;;;;;;1.60;1.50;;;5.00;99.90;;;;;;5076208;28;20432;-69
2022/04/10 06:41:24;;;;;;;1.53;1.43;;;5.10;99.90;;;;;;5076086;28;20435;-69
2022/04/10 06:44:11;;;;;;;1.70;1.57;;;4.90;99.90;;;;;;5075659;28;20801;-69
2022/04/10 06:46:58;;;;;;;2.00;1.80;;;4.90;99.90;;;;;;5075748;28;20468;-69
2022/04/10 06:49:45;;;;;;;1.50;0.93;;;5.00;99.90;;;;;;5075485;28;20463;-68
2022/04/10 06:52:34;;;;;;;4.50;1.30;;;4.90;99.90;;;;;;5075951;28;20419;-69
2022/04/10 06:55:21;;;;;;;7.83;1.77;;;4.90;99.90;;;;;;5075968;28;20980;-69
2022/04/10 06:58:10;;;;;;;2.33;1.93;;;5.00;99.90;;;;;;5075074;28;20810;-68
2022/04/10 07:00:57;;;;;;;0.93;0.93;;;5.00;99.90;;;;;;5075546;28;20450;-68
2022/04/10 07:03:44;;;;;;;4.83;1.23;;;5.20;99.90;;;;;;5075834;28;20788;-69
2022/04/10 07:06:31;;;;;;;5.30;1.43;;;5.30;99.90;;;;;;5076058;28;21017;-70
2022/04/10 07:09:18;;;;;;;1.00;0.70;;;5.50;99.90;;;;;;5076318;28;20447;-68
2022/04/10 07:12:06;;;;;;;6.53;1.17;;;5.20;99.90;;;;;;5080451;28;20440;-71
2022/04/10 07:14:54;;;;;;;1.83;1.30;;;5.00;99.90;;;;;;5081551;28;20932;-68
2022/04/10 07:17:41;;;;;;;1.43;1.30;;;5.00;99.90;;;;;;5077384;28;20419;-68
2022/04/10 07:20:28;;;;;;;2.20;1.17;;;5.10;99.90;;;;;;5075927;28;20447;-68
2022/04/10 07:26:20;;;;;;;3.50;0.70;;;5.00;99.90;;;;;;5075838;28;20459;-68
2022/04/10 07:29:10;;;;;;;3.70;0.83;;;5.10;99.90;;;;;;5075322;28;20797;-69
2022/04/10 07:31:58;;;;;;;0.93;0.67;;;5.30;99.90;;;;;;5075030;28;20420;-69
2022/04/10 07:34:45;;;;;;;5.73;1.33;;;5.50;99.90;;;;;;5075601;28;20879;-70
2022/04/10 07:37:32;;;;;;;0.40;0.40;;;5.80;99.90;;;;;;5076186;28;20431;-69
2022/04/10 07:40:20;;;;;;;0.90;0.90;;;5.60;99.90;;;;;;5076524;28;20518;-69
2022/04/10 07:43:07;;;;;;;0.70;0.70;;;5.60;99.90;;;;;;5074700;28;20509;-68
2022/04/10 07:49:00;;;;;;;0.60;0.60;;;5.60;99.90;;;;;;5075479;28;20481;-68
2022/04/10 07:51:47;;;;;;;0.60;0.60;;;5.50;99.90;;;;;;5077703;28;20956;-69
2022/04/10 07:54:34;;;;;;;4.00;1.27;;;5.50;99.90;;;;;;5077602;28;20570;-69
2022/04/10 07:57:21;;;;;;;0.60;0.60;;;5.50;99.90;;;;;;5077938;28;20434;-69
2022/04/10 08:00:09;;;;;;;1.00;0.90;;;5.60;99.90;;;;;;5077787;28;20444;-69
2022/04/10 08:02:56;;;;;;;5.33;2.07;;;5.90;99.90;;;;;;5075300;28;20936;-68
2022/04/10 08:05:44;;;;;;;0.40;0.40;;;6.20;99.90;;;;;;5076015;28;20420;-69
2022/04/10 08:08:31;;;;;;;0.47;0.47;;;6.30;99.90;;;;;;5076091;28;20434;-69
2022/04/10 08:11:18;;;;;;;0.97;0.50;;;6.40;99.90;;;;;;5074729;28;20436;-69
2022/04/10 08:14:06;;;;;;;0.80;0.80;;;6.70;99.90;;;;;;5075260;28;20431;-70
2022/04/10 08:16:52;;;;;;;1.63;1.40;;;6.70;99.90;;;;;;5076554;28;20424;-69
2022/04/10 08:19:39;;;;;;;0.50;0.50;;;6.70;99.90;;;;;;5078769;28;20454;-70
2022/04/10 08:22:28;;;;;;;0.40;0.40;;;6.70;99.90;;;;;;5078920;28;20477;-70
2022/04/10 08:25:16;;;;;;;9.93;1.87;;;6.70;99.90;;;;;;5075791;28;20427;-69
2022/04/10 08:28:04;;;;;;;1.47;0.80;;;6.60;99.90;;;;;;5078089;28;20467;-69
2022/04/10 08:30:51;;;;;;;3.43;1.00;;;6.30;99.90;;;;;;5090316;28;20455;-69
2022/04/10 08:33:38;;;;;;;1.63;1.53;;;6.40;99.90;;;;;;5090655;28;20439;-70
2022/04/10 08:36:25;;;;;;;0.63;0.63;;;6.50;99.90;;;;;;5091657;28;20954;-68
2022/04/10 08:39:13;;;;;;;1.80;1.70;;;7.00;99.90;;;;;;5090061;28;20440;-68
2022/04/10 08:42:03;;;;;;;0.63;0.53;;;7.40;99.90;;;;;;5088728;28;20428;-69
2022/04/10 08:44:51;;;;;;;5.33;1.30;;;7.40;99.90;;;;;;5088999;28;20415;-69
2022/04/10 08:47:39;;;;;;;1.87;1.77;;;7.30;99.90;;;;;;5088223;28;20459;-69
2022/04/10 08:50:27;;;;;;;2.03;0.80;;;7.10;99.90;;;;;;5089493;28;20471;-70
2022/04/10 08:53:15;;;;;;;1.50;0.83;;;7.30;99.90;;;;;;5087924;28;20424;-70
2022/04/10 08:56:03;;;;;;;0.43;0.43;;;7.30;99.90;;;;;;5087049;28;20440;-69
2022/04/10 08:58:51;;;;;;;0.67;0.67;;;7.40;99.90;;;;;;5088325;28;20446;-68
2022/04/10 09:01:38;;;;;;;0.60;0.60;;;7.30;99.90;;;;;;5081243;28;21010;-69
2022/04/10 09:04:25;;;;;;;1.77;1.40;;;7.30;99.90;;;;;;5081854;28;20432;-69
2022/04/10 09:07:13;;;;;;;4.00;0.80;;;7.50;99.90;;;;;;5086656;28;20841;-69
2022/04/10 09:09:59;;;;;;;1.87;1.27;;;7.60;99.90;;;;;;5085977;28;20448;-68
2022/04/10 09:12:48;;;;;;;4.10;1.10;;;7.80;99.90;;;;;;5084100;28;20451;-70
2022/04/10 09:15:35;;;;;;;1.30;1.07;;;7.90;99.90;;;;;;5087233;28;20473;-70
2022/04/10 09:18:22;;;;;;;0.70;0.70;;;7.80;99.90;;;;;;5090575;28;20660;-70
2022/04/10 09:21:09;;;;;;;1.10;1.00;;;7.60;99.90;;;;;;5088586;28;20447;-70
2022/04/10 09:24:01;;;;;;;0.53;0.53;;;7.60;99.90;;;;;;5088611;28;20428;-71
2022/04/10 09:26:50;;;;;;;5.27;1.73;;;7.60;99.90;;;;;;5092463;28;20471;-69
2022/04/10 09:29:50;;;;;;;2.13;1.37;;;7.60;99.90;;;;;;5092078;28;20451;-68
2022/04/10 09:32:39;;;;;;;3.73;1.37;;;7.60;99.90;;;;;;5092277;28;20435;-69
2022/04/10 09:35:27;;;;;;;2.73;0.80;;;7.60;99.90;;;;;;5092103;28;20424;-70
2022/04/10 09:38:30;;;;;;;8.67;1.87;;;7.40;99.90;;;;;;5077300;28;20428;-69
2022/04/10 09:41:21;;;;;;;1.23;0.70;;;7.30;99.90;;;;;;5074076;28;20832;-69
2022/04/10 09:44:15;;;;;;;0.40;0.40;;;7.10;99.90;;;;;;5073038;28;20809;-69
2022/04/10 09:47:06;;;;;;;0.50;0.50;;;7.00;99.90;;;;;;5077180;28;20485;-69
2022/04/10 09:49:53;;;;;;;3.80;1.47;;;7.00;99.90;;;;;;5077484;28;20839;-69
2022/04/10 09:52:40;;;;;;;0.50;0.50;;;6.90;99.90;;;;;;5076888;28;20919;-70
2022/04/10 09:55:35;;;;;;;8.60;2.00;;;6.90;99.90;;;;;;5076910;28;20424;-69
2022/04/10 09:58:22;;;;;;;1.03;1.00;;;6.80;99.90;;;;;;5057585;28;20917;-69
2022/04/10 10:01:11;;;;;;;0.80;0.80;;;6.80;99.90;;;;;;5056140;28;20443;-69
2022/04/10 10:04:01;;;;;;;1.07;1.03;;;7.00;99.90;;;;;;5058404;28;20439;-70
2022/04/10 10:06:49;;;;;;;38.50;2.00;;;7.60;99.90;;;;;;5058364;28;20424;-68
2022/04/10 10:09:36;;;;;;;4.70;0.80;;;8.00;99.90;;;;;;5057126;28;20437;-69
2022/04/10 10:12:24;;;;;;;1.13;1.13;;;8.20;99.90;;;;;;5055874;28;20433;-69
2022/04/10 10:15:11;;;;;;;0.50;0.50;;;8.40;99.90;;;;;;5055767;28;20436;-70
2022/04/10 10:18:01;;;;;;;0.97;0.97;;;8.70;99.90;;;;;;5056660;28;20417;-69
2022/04/10 10:20:50;;;;;;;0.47;0.47;;;8.80;99.90;;;;;;5056546;28;20448;-68
2022/04/10 10:23:39;;;;;;;0.70;0.60;;;8.50;99.90;;;;;;5056668;28;20429;-69
2022/04/10 10:26:41;;;;;;;1.90;1.63;;;8.10;99.90;;;;;;5057780;28;20439;-70
2022/04/10 10:29:44;;;;;;;3.73;1.17;;;7.60;99.90;;;;;;5056253;28;20503;-69
2022/04/10 10:32:41;;;;;;;0.97;0.97;;;7.20;99.90;;;;;;5055638;28;20426;-68
2022/04/10 10:35:31;;;;;;;1.07;0.70;;;7.00;99.90;;;;;;5056381;28;20420;-68
2022/04/10 10:38:23;;;;;;;1.20;1.10;;;7.10;99.90;;;;;;5056448;28;20519;-69
2022/04/10 10:41:31;;;;;;;0.70;0.70;;;7.40;99.90;;;;;;5060419;28;20441;-69
2022/04/10 10:44:47;;;;;;;1.17;1.07;;;7.70;99.90;;;;;;5056494;28;21009;-71
2022/04/10 10:47:34;;;;;;;3.03;1.37;;;7.90;99.90;;;;;;5056217;28;21014;-69
2022/04/10 10:50:28;;;;;;;0.40;0.40;;;8.10;99.90;;;;;;5054935;28;20467;-69
2022/04/10 10:53:15;;;;;;;0.50;0.50;;;8.20;99.90;;;;;;5060913;28;20424;-69
2022/04/10 10:56:06;;;;;;;3.77;0.63;;;8.50;99.90;;;;;;5058838;28;20440;-68
2022/04/10 10:58:55;;;;;;;0.60;0.60;;;8.70;99.90;;;;;;5079623;28;20823;-70
2022/04/10 11:01:52;;;;;;;2.50;1.50;;;8.50;99.90;;;;;;5083135;28;20423;-69
2022/04/10 11:04:41;;;;;;;0.50;0.50;;;8.30;99.90;;;;;;5087502;28;20420;-68
2022/04/10 11:07:29;;;;;;;0.93;0.93;;;8.00;99.90;;;;;;5081194;28;20467;-69
2022/04/10 11:10:16;;;;;;;1.27;0.87;;;8.10;99.90;;;;;;5075349;28;20439;-68
2022/04/10 11:13:06;;;;;;;1.43;0.50;;;8.40;99.90;;;;;;5077082;28;20948;-69
2022/04/10 11:15:53;;;;;;;6.00;1.47;;;8.50;99.90;;;;;;5075831;28;20435;-69
2022/04/10 11:18:42;;;;;;;1.47;0.50;;;8.30;99.90;;;;;;5076892;28;20499;-68
2022/04/10 11:21:31;;;;;;;4.37;1.03;;;8.10;99.90;;;;;;5075552;28;20444;-67
2022/04/10 11:24:23;;;;;;;0.50;0.50;;;7.80;99.90;;;;;;5076081;28;20420;-69
2022/04/10 11:27:13;;;;;;;0.50;0.50;;;7.70;99.90;;;;;;5077165;28;20528;-69
2022/04/10 11:30:05;;;;;;;0.50;0.50;;;7.90;99.90;;;;;;5081761;28;20558;-69
2022/04/10 11:32:54;;;;;;;5.70;0.73;;;8.30;99.90;;;;;;5075400;28;20928;-70
2022/04/10 11:35:42;;;;;;;1.43;0.73;;;8.90;99.90;;;;;;5077711;28;20784;-68
2022/04/10 11:38:29;;;;;;;1.20;1.10;;;9.20;99.90;;;;;;5078702;28;20820;-70
2022/04/10 11:41:18;;;;;;;0.50;0.50;;;9.60;99.90;;;;;;5078048;28;20451;-68
2022/04/10 11:44:07;;;;;;;0.60;0.60;;;9.60;99.90;;;;;;5078620;28;20438;-71
2022/04/10 11:46:55;;;;;;;1.37;1.37;;;9.70;99.90;;;;;;5080237;28;20481;-70
2022/04/10 11:49:50;;;;;;;1.23;0.83;;;9.60;99.90;;;;;;5078371;28;20451;-69
2022/04/10 11:52:37;;;;;;;1.90;0.90;;;9.70;99.90;;;;;;5078594;28;20424;-71
2022/04/10 11:55:30;;;;;;;1.60;0.97;;;9.40;99.90;;;;;;5076414;28;20415;-69
2022/04/10 11:58:19;;;;;;;3.07;1.33;;;9.20;99.90;;;;;;5075308;28;20423;-68
2022/04/10 12:01:08;;;;;;;0.93;0.70;;;9.30;99.90;;;;;;5075980;28;20799;-69
2022/04/10 12:03:56;;;;;;;1.77;1.13;;;9.10;99.90;;;;;;5076237;28;20920;-67
2022/04/10 12:06:43;;;;;;;0.70;0.70;;;9.20;99.90;;;;;;5075210;28;20454;-69
2022/04/10 12:09:30;;;;;;;2.90;0.80;;;10.10;99.90;;;;;;5075402;28;20464;-71
2022/04/10 12:12:20;;;;;;;1.07;0.67;;;10.00;99.90;;;;;;5075918;28;20423;-68
2022/04/10 12:15:19;;;;;;;0.60;0.60;;;10.20;99.90;;;;;;5075722;28;20419;-69
2022/04/10 12:18:08;;;;;;;0.50;0.50;;;10.40;99.90;;;;;;5075763;28;20459;-69
2022/04/10 12:21:01;;;;;;;0.87;0.73;;;10.00;99.90;;;;;;5075841;28;20448;-70
2022/04/10 12:23:58;;;;;;;0.50;0.50;;;9.60;99.90;;;;;;5075815;28;20428;-69
2022/04/10 12:26:45;;;;;;;0.90;0.90;;;9.70;99.90;;;;;;5076064;28;20439;-72
2022/04/10 12:29:32;;;;;;;0.50;0.50;;;9.70;99.90;;;;;;5076037;28;20524;-71
2022/04/10 12:32:19;;;;;;;1.13;1.00;;;9.60;99.90;;;;;;5076325;28;20423;-70
2022/04/10 12:35:08;;;;;;;1.07;0.60;;;9.40;99.90;;;;;;5076939;28;20952;-69
2022/04/10 12:38:03;;;;;;;1.60;0.60;;;8.90;99.90;;;;;;5077448;28;20951;-69
2022/04/10 12:40:50;;;;;;;0.50;0.50;;;8.40;99.90;;;;;;5075599;28;20465;-69
2022/04/10 12:43:37;;;;;;;1.43;1.33;;;7.70;99.90;;;;;;5073231;28;20428;-69
2022/04/10 12:46:33;;;;;;;0.50;0.50;;;7.00;99.90;;;;;;5072664;28;20431;-68
2022/04/10 12:49:20;;;;;;;0.60;0.60;;;6.20;99.90;;;;;;5072385;28;20967;-69
2022/04/10 12:52:09;;;;;;;1.73;0.60;;;5.80;99.90;;;;;;5072813;28;20442;-68
2022/04/10 12:54:58;;;;;;;0.50;0.50;;;5.40;99.90;;;;;;5072657;28;20522;-67
2022/04/10 12:57:55;;;;;;;0.90;0.90;;;5.30;99.90;;;;;;5072273;28;20424;-69
2022/04/10 13:00:46;;;;;;;0.60;0.60;;;5.20;99.90;;;;;;5072700;28;20440;-68
2022/04/10 13:03:33;;;;;;;3.03;1.60;;;5.10;99.90;;;;;;5072223;28;20816;-70
2022/04/10 13:06:26;;;;;;;3.70;0.93;;;4.70;99.90;;;;;;5072944;28;20873;-70
2022/04/10 13:09:15;;;;;;;1.40;1.30;;;4.20;99.90;;;;;;5072439;28;20459;-70
2022/04/10 13:12:04;;;;;;;0.50;0.50;;;4.20;99.90;;;;;;5072411;28;20416;-70
2022/04/10 13:14:52;;;;;;;0.50;0.50;;;4.80;99.90;;;;;;5072930;28;20420;-70
2022/04/10 13:17:41;;;;;;;1.30;0.90;;;6.00;99.90;;;;;;5072144;28;20431;-70
2022/04/10 13:20:28;;;;;;;0.50;0.50;;;8.10;99.90;;;;;;5073749;28;20462;-69
2022/04/10 13:23:15;;;;;;;0.40;0.40;;;10.20;99.90;;;;;;5075535;28;20428;-69
2022/04/10 13:26:02;;;;;;;0.40;0.40;;;12.40;99.90;;;;;;5075459;28;20785;-71
2022/04/10 13:28:50;;;;;;;0.40;0.40;;;12.90;99.90;;;;;;5075474;28;20568;-70
2022/04/10 13:31:38;;;;;;;0.60;0.60;;;13.30;99.90;;;;;;5075758;28;20430;-70
2022/04/10 13:34:25;;;;;;;0.40;0.40;;;14.20;99.90;;;;;;5076138;28;20425;-72
2022/04/10 13:37:12;;;;;;;0.40;0.40;;;15.50;99.90;;;;;;5075493;28;20848;-73
2022/04/10 13:39:59;;;;;;;0.40;0.40;;;17.00;99.90;;;;;;5074929;28;20520;-72
2022/04/10 13:42:49;;;;;;;0.63;0.63;;;18.40;99.90;;;;;;5074580;28;20435;-73
2022/04/10 13:45:37;;;;;;;0.50;0.50;;;18.50;99.90;;;;;;5074950;28;20940;-71
2022/04/10 13:48:24;;;;;;;2.40;1.13;;;18.40;99.90;;;;;;5075118;28;20459;-71
2022/04/10 13:51:11;;;;;;;2.50;2.17;;;17.90;99.90;;;;;;5107449;22;20502;-66
2022/04/10 13:54:01;;;;;;;0.87;0.87;;;16.90;99.90;;;;;;5088231;28;20426;-66
2022/04/10 13:56:47;;;;;;;0.40;0.40;;;16.70;99.90;;;;;;5088763;28;20481;-66
2022/04/10 13:59:34;;;;;;;0.40;0.40;;;15.60;99.90;;;;;;5092350;28;20446;-66
2022/04/10 14:02:23;;;;;;;0.53;0.53;;;15.70;99.90;;;;;;5069320;28;20940;-66
2022/04/10 14:05:10;;;;;;;0.40;0.40;;;16.80;99.90;;;;;;5072316;28;20404;-66
2022/04/10 14:07:57;;;;;;;0.60;0.50;;;15.40;99.90;;;;;;5070208;28;20431;-66
2022/04/10 14:10:44;;;;;;;1.80;0.60;;;13.40;99.90;;;;;;5068874;28;20451;-66
2022/04/10 14:13:31;;;;;;;0.40;0.40;;;11.80;99.90;;;;;;5068938;28;20440;-66
2022/04/10 14:16:19;;;;;;;0.40;0.40;;;10.50;99.90;;;;;;5070408;28;20450;-66
2022/04/10 14:19:07;;;;;;;0.93;0.60;;;9.20;99.90;;;;;;5069792;28;20454;-66
2022/04/10 14:21:54;;;;;;;2.30;1.27;;;8.40;99.90;;;;;;5069923;28;21036;-65
2022/04/10 14:24:43;;;;;;;2.20;0.70;;;7.30;99.90;;;;;;5056011;28;20510;-64
2022/04/10 14:27:30;;;;;;;0.50;0.50;;;6.10;99.90;;;;;;5055600;28;20441;-64
2022/04/10 14:30:17;;;;;;;0.77;0.60;;;6.20;99.90;;;;;;5055316;28;20447;-64
2022/04/10 14:33:04;;;;;;;0.50;0.50;;;7.20;99.90;;;;;;5055380;28;20420;-64
2022/04/10 14:35:52;;;;;;;1.37;0.60;;;7.80;99.90;;;;;;5055359;28;20440;-64
2022/04/10 14:38:39;;;;;;;0.47;0.40;;;8.50;99.90;;;;;;5057629;28;20409;-64
2022/04/10 14:41:26;;;;;;;0.83;0.60;;;9.80;99.90;;;;;;5055238;28;20819;-64
2022/04/10 14:44:15;;;;;;;0.60;0.50;;;11.20;99.90;;;;;;5055342;28;20566;-64
2022/04/10 14:47:03;;;;;;;0.60;0.60;;;11.50;99.90;;;;;;5056071;28;20979;-64
2022/04/10 14:49:50;;;;;;;0.63;0.63;;;10.50;99.90;;;;;;5055054;28;20968;-64
2022/04/10 14:52:38;;;;;;;0.87;0.70;;;10.60;99.90;;;;;;5055724;28;20420;-65